Time;durP1;ratioP1;P1;durP2;ratioP2;P2;SDS_P1;SDS_P2;PMS_P1;PMS_P2;Temp;Humidity;BMP_temperature;BMP_pressure;BME280_temperature;BME280_humidity;BME280_pressure;Samples;Min_cycle;Max_cycle;Signal;HPM_P1;HPM_P2
2022/02/06 00:04:51;;;;;;;1.92;0.60;;;17.60;63.60;;;;;;10588639;27;20113;-58
2022/02/06 00:09:52;;;;;;;1.42;0.70;;;17.60;63.60;;;;;;10626579;27;20039;-59
2022/02/06 00:14:53;;;;;;;1.30;0.73;;;17.60;63.60;;;;;;10608567;27;20390;-59
2022/02/06 00:19:55;;;;;;;1.73;0.70;;;17.60;63.60;;;;;;10587006;27;20063;-59
2022/02/06 00:30:10;;;;;;;2.15;0.60;;;17.60;63.50;;;;;;10583479;28;20043;-59
2022/02/06 00:35:23;;;;;;;2.30;0.70;;;17.60;63.40;;;;;;10569694;27;20110;-59
2022/02/06 00:40:36;;;;;;;2.65;0.63;;;17.60;63.40;;;;;;10583082;28;20112;-59
2022/02/06 00:45:37;;;;;;;1.63;0.57;;;17.60;63.40;;;;;;10605978;27;20091;-58
2022/02/06 00:50:42;;;;;;;1.13;0.45;;;17.60;63.50;;;;;;10588715;27;20091;-59
2022/02/06 00:55:44;;;;;;;1.30;0.60;;;17.60;63.40;;;;;;10606997;27;20378;-58
2022/02/06 01:00:45;;;;;;;1.75;0.50;;;17.50;63.50;;;;;;10606317;27;20399;-59
2022/02/06 01:05:46;;;;;;;2.17;0.43;;;17.60;63.40;;;;;;10605705;27;20023;-59
2022/02/06 01:10:46;;;;;;;0.80;0.50;;;17.60;63.50;;;;;;10605897;27;20032;-60
2022/02/06 01:15:56;;;;;;;2.25;0.60;;;17.60;63.40;;;;;;10623752;27;20462;-59
2022/02/06 01:20:59;;;;;;;;;;;17.60;63.40;;;;;;10590428;27;20091;-59
2022/02/06 01:26:18;;;;;;;1.15;0.70;;;17.60;63.30;;;;;;10606054;27;19907;-58
2022/02/06 01:31:44;;;;;;;1.77;0.93;;;17.60;63.30;;;;;;10613291;27;20495;-59
2022/02/06 01:36:50;;;;;;;0.82;0.52;;;17.60;63.20;;;;;;10584399;27;20392;-59
2022/02/06 01:41:56;;;;;;;1.55;0.88;;;17.60;63.20;;;;;;10554086;27;20030;-61
2022/02/06 02:12:55;;;;;;;0.93;0.50;;;17.60;63.20;;;;;;10562470;28;20040;-59
2022/02/06 02:23:55;;;;;;;1.25;0.60;;;17.60;63.20;;;;;;10606357;28;20062;-59
2022/02/06 02:50:01;;;;;;;1.08;0.60;;;17.80;65.10;;;;;;10594833;28;20118;-59
2022/02/06 02:55:17;;;;;;;2.55;0.47;;;17.80;65.20;;;;;;10563183;28;20038;-59
2022/02/06 03:00:25;;;;;;;2.78;0.98;;;17.80;65.20;;;;;;10580456;28;20028;-60
2022/02/06 03:05:27;;;;;;;1.50;0.63;;;17.80;65.20;;;;;;10603814;28;20041;-59
2022/02/06 03:10:27;;;;;;;2.17;0.70;;;17.70;65.20;;;;;;10621613;28;20467;-59
2022/02/06 03:15:44;;;;;;;1.33;0.55;;;17.70;65.20;;;;;;10602606;27;20110;-60
2022/02/06 03:20:46;;;;;;;2.05;0.73;;;17.80;65.20;;;;;;10613016;27;20371;-59
2022/02/06 03:25:53;;;;;;;1.85;0.60;;;17.80;65.10;;;;;;10593960;27;20324;-60
2022/02/06 03:30:53;;;;;;;1.55;0.60;;;17.70;65.00;;;;;;10593306;27;20043;-59
2022/02/06 03:35:54;;;;;;;1.58;0.88;;;17.70;65.00;;;;;;10628224;27;20510;-59
2022/02/06 03:41:01;;;;;;;1.63;0.40;;;17.70;65.00;;;;;;10592637;27;20027;-60
2022/02/06 03:46:13;;;;;;;1.38;0.45;;;17.80;65.00;;;;;;10568902;28;20130;-60
2022/02/06 03:51:22;;;;;;;1.65;0.70;;;17.70;64.90;;;;;;10566930;28;20037;-59
2022/02/06 03:56:25;;;;;;;0.43;0.30;;;17.80;64.80;;;;;;10568569;27;20034;-59
2022/02/06 04:01:27;;;;;;;1.75;0.50;;;17.70;64.80;;;;;;10613428;27;20023;-59
2022/02/06 04:06:29;;;;;;;1.48;0.50;;;17.80;64.80;;;;;;10609065;27;20054;-59
2022/02/06 04:11:45;;;;;;;1.23;0.60;;;17.70;64.80;;;;;;10591342;27;20062;-59
2022/02/06 04:16:52;;;;;;;0.60;0.40;;;17.70;64.70;;;;;;10568384;28;20019;-59
2022/02/06 04:21:54;;;;;;;0.80;0.55;;;17.70;65.30;;;;;;10578493;27;20035;-59
2022/02/06 04:26:55;;;;;;;0.65;0.40;;;17.70;64.70;;;;;;10607744;27;20063;-59
2022/02/06 04:31:56;;;;;;;0.93;0.40;;;17.70;64.80;;;;;;10574541;27;20400;-59
2022/02/06 04:42:25;;;;;;;1.58;0.30;;;17.70;64.70;;;;;;10599200;27;20035;-59
2022/02/06 05:34:38;;;;;;;1.60;0.88;;;17.60;64.50;;;;;;10587411;27;20047;-60
2022/02/06 05:39:39;;;;;;;1.83;0.47;;;17.60;64.50;;;;;;10622609;27;20445;-60
2022/02/06 05:44:42;;;;;;;1.67;0.50;;;17.70;64.50;;;;;;10578324;27;20037;-60
2022/02/06 05:49:43;;;;;;;2.05;0.40;;;17.70;64.50;;;;;;10574467;27;20130;-59
2022/02/06 05:54:43;;;;;;;0.93;0.40;;;17.70;64.40;;;;;;10580687;28;20122;-60
2022/02/06 05:59:44;;;;;;;2.25;1.00;;;17.70;64.40;;;;;;10593255;27;20042;-58
2022/02/06 06:04:45;;;;;;;3.92;1.30;;;17.70;65.10;;;;;;10587533;27;20022;-58
2022/02/06 06:09:46;;;;;;;2.55;1.20;;;17.80;65.00;;;;;;10604631;27;20036;-59
2022/02/06 06:14:47;;;;;;;2.20;1.00;;;17.90;65.30;;;;;;10608404;28;20051;-58
2022/02/06 06:19:48;;;;;;;2.53;0.85;;;18.00;65.60;;;;;;10604376;28;20367;-59
2022/02/06 06:24:56;;;;;;;5.55;1.05;;;18.00;66.50;;;;;;10586227;28;20033;-59
2022/02/06 06:29:56;;;;;;;6.28;0.98;;;18.00;66.70;;;;;;10574805;28;20039;-59
2022/02/06 06:34:57;;;;;;;8.80;1.48;;;17.90;67.30;;;;;;10582302;28;20023;-60
2022/02/06 06:39:58;;;;;;;7.35;1.48;;;17.90;67.80;;;;;;10580648;28;20027;-62
2022/02/06 06:44:59;;;;;;;8.90;1.13;;;17.70;67.60;;;;;;10579255;28;20476;-60
2022/02/06 06:50:01;;;;;;;6.82;1.25;;;17.70;67.90;;;;;;10583911;28;20099;-58
2022/02/06 06:55:04;;;;;;;16.52;2.10;;;17.70;67.40;;;;;;10568297;27;20054;-58
2022/02/06 07:05:06;;;;;;;22.58;2.47;;;17.70;67.50;;;;;;10592360;27;20057;-59
2022/02/06 07:10:08;;;;;;;14.18;2.15;;;17.60;67.50;;;;;;10590737;27;20353;-59
2022/02/06 07:15:08;;;;;;;16.38;2.10;;;17.60;68.30;;;;;;10573107;27;20019;-59
2022/02/06 07:20:10;;;;;;;14.50;2.38;;;17.60;68.40;;;;;;10579772;27;20113;-61
2022/02/06 07:25:11;;;;;;;13.38;2.17;;;17.50;68.20;;;;;;10587323;27;20042;-60
2022/02/06 07:30:12;;;;;;;11.73;2.45;;;17.50;68.50;;;;;;10588547;27;20042;-63
2022/02/06 07:35:14;;;;;;;15.98;2.25;;;17.40;68.20;;;;;;10586472;27;20039;-63
2022/02/06 07:40:15;;;;;;;15.02;2.08;;;17.40;68.70;;;;;;10577511;27;20690;-60
2022/02/06 07:45:17;;;;;;;11.02;2.25;;;17.50;68.80;;;;;;10550771;27;20118;-60
2022/02/06 07:50:17;;;;;;;9.85;2.22;;;17.40;68.70;;;;;;10581669;27;20027;-61
2022/02/06 07:55:18;;;;;;;12.18;2.25;;;17.40;69.00;;;;;;10574599;27;20023;-58
2022/02/06 08:00:19;;;;;;;19.75;2.88;;;17.40;67.80;;;;;;10581548;27;20032;-57
2022/02/06 08:05:20;;;;;;;8.90;1.73;;;17.50;67.00;;;;;;10594938;27;20115;-57
2022/02/06 08:10:22;;;;;;;11.32;2.63;;;17.40;66.70;;;;;;10604656;27;20027;-57
2022/02/06 08:15:23;;;;;;;9.43;2.25;;;17.60;66.50;;;;;;10609127;27;20545;-57
2022/02/06 08:20:24;;;;;;;12.82;2.47;;;17.50;66.10;;;;;;10620903;27;20433;-57
2022/02/06 08:25:25;;;;;;;9.98;2.70;;;17.60;66.20;;;;;;10579971;27;20438;-57
2022/02/06 08:30:26;;;;;;;8.85;1.67;;;17.50;66.20;;;;;;10543819;28;20036;-57
2022/02/06 08:35:27;;;;;;;5.93;1.48;;;17.50;66.30;;;;;;10551992;28;20529;-56
2022/02/06 08:40:27;;;;;;;5.95;1.30;;;17.40;66.30;;;;;;10540740;28;20377;-57
2022/02/06 08:45:29;;;;;;;6.05;1.42;;;17.40;66.40;;;;;;10569527;28;20379;-57
2022/02/06 08:50:31;;;;;;;10.07;1.85;;;17.30;66.30;;;;;;10530949;28;20034;-57
2022/02/06 08:55:32;;;;;;;7.50;1.80;;;17.40;66.10;;;;;;10538964;28;20073;-57
2022/02/06 09:00:33;;;;;;;8.68;1.40;;;17.40;65.90;;;;;;10580498;28;20088;-57
2022/02/06 09:05:34;;;;;;;7.78;1.35;;;17.50;65.60;;;;;;10572953;28;20040;-56
2022/02/06 09:10:35;;;;;;;8.77;2.00;;;17.50;65.40;;;;;;10538101;28;20349;-57
2022/02/06 09:15:36;;;;;;;4.55;0.98;;;17.50;65.40;;;;;;10539044;28;20041;-57
2022/02/06 09:20:37;;;;;;;4.55;1.20;;;17.50;65.50;;;;;;10545989;28;20028;-57
2022/02/06 09:25:38;;;;;;;6.72;1.40;;;17.50;65.30;;;;;;10574600;28;20379;-57
2022/02/06 09:30:38;;;;;;;7.70;2.00;;;17.40;66.00;;;;;;10559489;28;20100;-56
2022/02/06 09:35:39;;;;;;;9.05;2.10;;;17.50;66.60;;;;;;10587212;27;20492;-55
2022/02/06 09:40:45;;;;;;;8.02;2.03;;;17.60;67.50;;;;;;10567273;28;20032;-56
2022/02/06 09:45:48;;;;;;;15.10;2.65;;;17.60;67.20;;;;;;10550086;28;20102;-55
2022/02/06 09:50:48;;;;;;;8.88;2.00;;;17.50;67.40;;;;;;10558292;28;20531;-57
2022/02/06 09:55:49;;;;;;;9.25;1.85;;;17.60;67.60;;;;;;10547757;28;20031;-56
2022/02/06 10:00:50;;;;;;;8.52;1.88;;;17.50;67.70;;;;;;10554000;28;20630;-56
2022/02/06 10:05:52;;;;;;;9.60;1.77;;;17.60;67.90;;;;;;10560907;28;20456;-55
2022/02/06 10:11:07;;;;;;;9.63;2.33;;;17.50;68.00;;;;;;10538450;28;20046;-56
2022/02/06 10:16:12;;;;;;;6.22;1.90;;;17.50;68.10;;;;;;10544167;28;20034;-55
2022/02/06 10:21:21;;;;;;;9.10;2.00;;;17.50;68.30;;;;;;10539991;28;20426;-57
2022/02/06 10:31:59;;;;;;;12.48;3.05;;;17.50;68.70;;;;;;10581812;27;20027;-57
2022/02/06 10:37:19;;;;;;;11.05;2.63;;;17.50;68.40;;;;;;10608961;27;20020;-57
2022/02/06 10:42:23;;;;;;;14.77;2.72;;;17.50;68.40;;;;;;10574205;27;20015;-57
2022/02/06 10:47:33;;;;;;;12.98;3.33;;;17.50;68.40;;;;;;10578833;27;20030;-57
2022/02/06 10:52:34;;;;;;;11.90;2.75;;;17.50;68.80;;;;;;10561998;27;20624;-57
2022/02/06 10:57:58;;;;;;;11.85;2.58;;;17.50;68.20;;;;;;10581310;27;20030;-56
2022/02/06 11:03:03;;;;;;;10.23;2.40;;;17.50;68.10;;;;;;10586746;27;20112;-57
2022/02/06 11:08:04;;;;;;;11.68;3.25;;;17.50;68.20;;;;;;10576258;27;20034;-57
2022/02/06 11:13:06;;;;;;;14.57;2.63;;;17.50;68.20;;;;;;10554030;27;20509;-57
2022/02/06 11:18:24;;;;;;;18.27;3.28;;;17.50;68.40;;;;;;10551527;28;20020;-59
2022/02/06 11:23:36;;;;;;;19.58;3.58;;;17.60;69.20;;;;;;10584851;28;20496;-60
2022/02/06 11:28:39;;;;;;;13.20;3.38;;;17.60;70.50;;;;;;10584588;28;20039;-59
2022/02/06 11:33:40;;;;;;;19.48;3.50;;;17.60;70.70;;;;;;10571453;28;20475;-56
2022/02/06 11:44:20;;;;;;;19.23;2.70;;;17.60;69.10;;;;;;10574765;28;20051;-56
2022/02/06 11:49:21;;;;;;;14.77;3.00;;;17.60;68.70;;;;;;10561943;28;20406;-57
2022/02/06 11:54:32;;;;;;;12.52;2.30;;;17.60;68.50;;;;;;10586257;28;20122;-57
2022/02/06 11:59:34;;;;;;;10.05;2.72;;;17.60;68.40;;;;;;10602220;28;20035;-57
2022/02/06 12:04:34;;;;;;;10.13;2.42;;;17.50;68.40;;;;;;10583330;28;20027;-57
2022/02/06 12:09:51;;;;;;;14.55;2.20;;;17.50;68.30;;;;;;10559272;28;20440;-56
2022/02/06 12:15:19;;;;;;;9.02;1.90;;;17.50;68.20;;;;;;10561951;28;20032;-57
2022/02/06 12:20:20;;;;;;;8.00;1.88;;;17.40;68.00;;;;;;10581803;28;20081;-56
2022/02/06 12:25:28;;;;;;;10.50;2.08;;;17.50;67.90;;;;;;10562856;28;20073;-56
2022/02/06 12:31:31;;;;;;;4.80;1.65;;;17.50;67.80;;;;;;10489707;28;20390;-58
2022/02/06 12:42:00;;;;;;;9.55;2.40;;;17.50;67.40;;;;;;10448380;28;20485;-57
2022/02/06 12:47:10;;;;;;;5.32;1.95;;;17.50;67.80;;;;;;10447301;28;20476;-58
2022/02/06 12:52:12;;;;;;;4.97;1.45;;;17.50;67.20;;;;;;10447355;28;20691;-57
2022/02/06 12:57:14;;;;;;;4.47;1.30;;;17.50;67.10;;;;;;10448431;28;20029;-57
2022/02/06 13:02:21;;;;;;;6.93;1.60;;;17.60;66.90;;;;;;10446820;28;20118;-58
2022/02/06 13:07:28;;;;;;;8.18;1.58;;;17.60;66.80;;;;;;10463349;28;20025;-58
2022/02/06 13:33:12;;;;;;;2.60;1.20;;;17.50;66.50;;;;;;10455127;28;20127;-57
2022/02/06 13:38:17;;;;;;;8.75;1.58;;;17.50;66.50;;;;;;10484303;28;20036;-58
2022/02/06 13:43:23;;;;;;;4.85;0.90;;;17.60;66.40;;;;;;10441134;28;20041;-57
2022/02/06 13:48:26;;;;;;;5.25;1.33;;;17.60;66.40;;;;;;10401652;28;20516;-58
2022/02/06 13:53:29;;;;;;;6.20;1.15;;;17.60;66.20;;;;;;10417733;28;20025;-58
2022/02/06 13:58:31;;;;;;;5.65;1.08;;;17.60;66.20;;;;;;10418622;28;20390;-57
2022/02/06 14:03:55;;;;;;;4.38;1.35;;;17.60;66.10;;;;;;10395090;28;20469;-58
2022/02/06 14:09:25;;;;;;;6.82;1.55;;;17.60;66.50;;;;;;10404214;28;20108;-58
2022/02/06 14:14:28;;;;;;;12.27;2.47;;;17.60;66.50;;;;;;10392546;28;20033;-59
2022/02/06 14:19:44;;;;;;;21.17;3.00;;;17.60;66.90;;;;;;10421403;28;20037;-58
2022/02/06 14:24:54;;;;;;;17.63;2.67;;;17.60;67.70;;;;;;10413535;28;20113;-57
2022/02/06 14:30:10;;;;;;;;;;;17.70;68.10;;;;;;10399524;28;20053;-56
2022/02/06 14:35:13;;;;;;;21.55;3.35;;;17.70;67.60;;;;;;10416700;28;19941;-58
2022/02/06 14:40:51;;;;;;;13.40;2.95;;;17.60;68.00;;;;;;10423078;28;20009;-60
2022/02/06 14:45:54;;;;;;;15.35;2.55;;;17.60;68.70;;;;;;10413225;28;20026;-59
2022/02/06 14:50:56;;;;;;;10.38;2.53;;;17.60;68.20;;;;;;10425806;28;20108;-59
2022/02/06 14:55:57;;;;;;;15.05;2.20;;;17.60;68.20;;;;;;10413313;28;20029;-58
2022/02/06 15:00:58;;;;;;;9.65;2.67;;;17.60;68.20;;;;;;10413877;28;20025;-59
2022/02/06 15:05:58;;;;;;;11.05;2.08;;;17.60;68.20;;;;;;10417148;28;20108;-59
2022/02/06 15:10:59;;;;;;;10.57;2.50;;;17.60;68.40;;;;;;10410339;28;20086;-59
2022/02/06 15:16:07;;;;;;;12.07;2.47;;;17.60;68.40;;;;;;10399775;28;20500;-59
2022/02/06 15:21:09;;;;;;;11.50;2.05;;;17.60;68.30;;;;;;10415303;28;20041;-59
2022/02/06 15:26:10;;;;;;;14.00;2.45;;;17.60;68.70;;;;;;10414810;28;20159;-59
2022/02/06 15:31:11;;;;;;;29.60;5.75;;;17.70;69.20;;;;;;10413129;28;20103;-59
2022/02/06 15:36:11;;;;;;;17.30;2.97;;;17.60;69.00;;;;;;10414374;28;20018;-58
2022/02/06 15:41:14;;;;;;;14.52;2.17;;;17.60;69.00;;;;;;10414481;28;20029;-58
2022/02/06 15:46:15;;;;;;;13.57;2.58;;;17.60;68.80;;;;;;10396083;28;20037;-58
2022/02/06 15:51:16;;;;;;;13.73;2.97;;;17.60;68.80;;;;;;10412897;28;20045;-58
2022/02/06 15:56:16;;;;;;;10.90;2.42;;;17.70;71.10;;;;;;10412224;28;20014;-58
2022/02/06 16:01:17;;;;;;;11.98;5.47;;;17.70;73.60;;;;;;10394813;28;20493;-58
2022/02/06 16:06:18;;;;;;;28.77;16.92;;;17.80;74.60;;;;;;10395448;28;20393;-59
2022/02/06 16:11:19;;;;;;;31.02;16.20;;;17.80;74.60;;;;;;10413401;28;20034;-58
2022/02/06 16:16:20;;;;;;;21.73;13.38;;;17.70;76.10;;;;;;10405522;28;20033;-57
2022/02/06 16:21:22;;;;;;;22.65;10.98;;;17.80;75.10;;;;;;10411236;28;20057;-58
2022/02/06 16:26:23;;;;;;;21.33;9.25;;;17.90;70.60;;;;;;10411869;28;20032;-58
2022/02/06 16:31:24;;;;;;;19.20;7.65;;;17.90;69.60;;;;;;10411763;28;20489;-57
2022/02/06 16:36:26;;;;;;;12.90;6.20;;;17.90;68.70;;;;;;10391395;28;20025;-58
2022/02/06 16:41:27;;;;;;;11.70;4.68;;;17.90;68.70;;;;;;10412017;28;20025;-58
2022/02/06 16:46:27;;;;;;;10.13;5.03;;;18.00;68.20;;;;;;10411429;28;20056;-58
2022/02/06 16:51:29;;;;;;;10.02;5.13;;;18.10;67.60;;;;;;10411750;28;20104;-58
2022/02/06 16:56:31;;;;;;;13.10;4.55;;;18.20;67.00;;;;;;10411386;28;20021;-57
2022/02/06 17:01:31;;;;;;;8.43;3.78;;;18.30;66.70;;;;;;10412329;28;20086;-57
2022/02/06 17:06:33;;;;;;;18.35;4.15;;;18.40;66.50;;;;;;10426767;28;20094;-57
2022/02/06 17:11:33;;;;;;;16.48;3.55;;;18.50;65.40;;;;;;10400773;28;20037;-58
2022/02/06 17:16:34;;;;;;;11.73;2.58;;;18.40;65.20;;;;;;10435847;28;20714;-60
2022/02/06 17:21:35;;;;;;;7.40;2.47;;;18.50;67.80;;;;;;10418284;28;20040;-58
2022/02/06 17:26:36;;;;;;;12.63;2.33;;;18.50;70.10;;;;;;10418132;28;20064;-59
2022/02/06 17:31:39;;;;;;;12.32;2.40;;;18.40;68.70;;;;;;10418292;28;20416;-59
2022/02/06 17:36:39;;;;;;;16.98;2.53;;;18.30;68.20;;;;;;10440998;28;20116;-58
2022/02/06 17:41:40;;;;;;;14.77;3.03;;;18.20;68.20;;;;;;10417601;28;20104;-59
2022/02/06 17:46:41;;;;;;;10.65;2.35;;;18.20;68.40;;;;;;10417878;28;20134;-59
2022/02/06 17:51:42;;;;;;;7.80;2.63;;;18.10;69.20;;;;;;10418835;28;20055;-58
2022/02/06 17:56:42;;;;;;;13.93;3.95;;;18.00;69.70;;;;;;10433976;28;20026;-58
2022/02/06 18:01:43;;;;;;;5.72;1.92;;;18.00;69.70;;;;;;10433613;28;20037;-57
2022/02/06 18:06:44;;;;;;;11.60;1.98;;;17.90;69.20;;;;;;10417128;28;20032;-58
2022/02/06 18:11:45;;;;;;;6.30;1.77;;;17.80;69.20;;;;;;10417530;28;20551;-57
2022/02/06 18:16:46;;;;;;;10.75;2.15;;;17.70;69.30;;;;;;10414146;28;20611;-58
2022/02/06 18:21:46;;;;;;;6.13;1.70;;;17.60;69.60;;;;;;10423588;28;20490;-58
2022/02/06 18:26:47;;;;;;;8.75;2.25;;;17.60;69.70;;;;;;10416555;28;20099;-57
2022/02/06 18:31:48;;;;;;;9.82;2.20;;;17.50;69.60;;;;;;10414588;28;20037;-58
2022/02/06 18:36:49;;;;;;;9.60;1.63;;;17.50;69.70;;;;;;10391975;28;20422;-58
2022/02/06 18:41:50;;;;;;;6.95;1.88;;;17.50;70.40;;;;;;10400272;28;20044;-60
2022/02/06 18:46:51;;;;;;;4.75;1.33;;;17.50;69.50;;;;;;10395992;28;20115;-60
2022/02/06 18:51:53;;;;;;;9.00;1.83;;;17.50;69.50;;;;;;10408228;28;20478;-59
2022/02/06 18:56:56;;;;;;;7.47;2.53;;;17.40;69.60;;;;;;10408260;28;20040;-59
2022/02/06 19:02:00;;;;;;;12.25;2.58;;;17.40;69.60;;;;;;10410986;28;20433;-59
2022/02/06 19:07:02;;;;;;;5.43;1.23;;;17.40;69.70;;;;;;10397032;28;20042;-59
2022/02/06 19:12:07;;;;;;;6.10;1.15;;;17.40;69.60;;;;;;10404416;28;20091;-59
2022/02/06 19:17:08;;;;;;;7.03;1.73;;;17.40;69.60;;;;;;10422091;28;20040;-59
2022/02/06 19:22:09;;;;;;;5.13;1.65;;;17.40;69.60;;;;;;10390391;28;20112;-59
2022/02/06 19:27:11;;;;;;;6.80;1.60;;;17.50;69.40;;;;;;10416078;28;20041;-59
2022/02/06 19:32:12;;;;;;;6.95;1.35;;;17.50;69.40;;;;;;10382129;28;20054;-59
2022/02/06 19:37:13;;;;;;;3.38;1.38;;;17.50;69.50;;;;;;10383569;28;20397;-59
2022/02/06 19:42:14;;;;;;;8.43;2.00;;;17.60;69.70;;;;;;10411721;28;20112;-59
2022/02/06 19:47:15;;;;;;;4.18;1.45;;;17.60;69.60;;;;;;10406915;28;20030;-59
2022/02/06 19:52:16;;;;;;;3.33;1.52;;;17.60;69.60;;;;;;10410749;28;20032;-58
2022/02/06 19:57:16;;;;;;;4.63;1.38;;;17.60;69.70;;;;;;10407704;28;20032;-59
2022/02/06 20:02:19;;;;;;;3.70;1.25;;;17.60;69.60;;;;;;10411910;28;20028;-59
2022/02/06 20:07:20;;;;;;;3.78;1.70;;;17.60;69.70;;;;;;10408209;28;20033;-58
2022/02/06 20:12:23;;;;;;;4.78;1.30;;;17.60;69.70;;;;;;10394763;28;20484;-58
2022/02/06 20:17:27;;;;;;;5.00;1.63;;;17.50;69.80;;;;;;10399376;28;20060;-59
2022/02/06 20:22:28;;;;;;;3.08;1.20;;;17.50;69.90;;;;;;10426798;28;20128;-59
2022/02/06 20:27:30;;;;;;;5.88;1.52;;;17.50;69.70;;;;;;10411023;28;20520;-58
2022/02/06 20:32:30;;;;;;;3.38;1.92;;;17.50;69.70;;;;;;10415860;28;20017;-59
2022/02/06 20:37:31;;;;;;;2.42;1.20;;;17.50;69.70;;;;;;10431304;28;20095;-58
2022/02/06 20:42:32;;;;;;;4.32;1.35;;;17.50;69.40;;;;;;10412093;28;20421;-59
2022/02/06 20:47:33;;;;;;;3.58;1.65;;;17.50;69.30;;;;;;10411763;28;20049;-59
2022/02/06 20:52:34;;;;;;;3.42;1.30;;;17.50;69.10;;;;;;10435347;28;20498;-58
2022/02/06 20:57:37;;;;;;;3.92;1.20;;;17.60;69.00;;;;;;10419876;28;20575;-59
2022/02/06 21:02:38;;;;;;;1.83;1.00;;;17.50;69.00;;;;;;10420977;28;20075;-58
2022/02/06 21:07:40;;;;;;;4.10;1.30;;;17.60;68.90;;;;;;10420506;28;20040;-58
2022/02/06 21:12:47;;;;;;;2.65;1.10;;;17.60;68.80;;;;;;10419109;28;20029;-58
2022/02/06 21:17:48;;;;;;;2.80;0.95;;;17.60;68.60;;;;;;10420368;28;20033;-58
2022/02/06 21:22:49;;;;;;;2.58;1.00;;;17.60;68.60;;;;;;10418798;28;20378;-58
2022/02/06 21:27:49;;;;;;;2.72;1.25;;;17.60;68.70;;;;;;10419788;28;20049;-58
2022/02/06 21:32:51;;;;;;;5.72;1.35;;;17.60;68.60;;;;;;10428278;28;20104;-59
2022/02/06 21:37:51;;;;;;;2.50;0.98;;;17.50;68.50;;;;;;10434092;28;20042;-59
2022/02/06 21:42:52;;;;;;;1.83;0.93;;;17.60;68.40;;;;;;10418200;28;20033;-59
2022/02/06 21:47:53;;;;;;;2.55;0.93;;;17.60;68.30;;;;;;10401493;28;20052;-59
2022/02/06 21:52:54;;;;;;;2.75;0.95;;;17.60;68.20;;;;;;10400657;28;20049;-59
2022/02/06 21:57:55;;;;;;;1.73;0.85;;;17.60;68.20;;;;;;10418799;28;20033;-58
2022/02/06 22:02:56;;;;;;;2.25;0.70;;;17.60;68.10;;;;;;10418388;28;20040;-58
2022/02/06 22:29:09;;;;;;;1.90;0.73;;;17.60;67.90;;;;;;10417413;28;20050;-58
2022/02/06 22:34:11;;;;;;;2.17;1.00;;;17.60;67.80;;;;;;10435815;28;20542;-58
2022/02/06 22:39:12;;;;;;;2.92;0.80;;;17.60;67.70;;;;;;10422423;28;20037;-58
2022/02/06 22:44:17;;;;;;;1.17;0.70;;;17.60;67.70;;;;;;10399403;28;20047;-58
2022/02/06 22:49:20;;;;;;;2.13;0.70;;;17.60;67.70;;;;;;10415524;28;20045;-58
2022/02/06 22:54:21;;;;;;;1.15;0.75;;;17.60;67.60;;;;;;10431573;28;20022;-59
2022/02/06 22:59:22;;;;;;;2.05;0.80;;;17.60;67.50;;;;;;10415391;28;20030;-58
2022/02/06 23:04:23;;;;;;;2.85;0.98;;;17.70;67.40;;;;;;10416370;28;20033;-58
2022/02/06 23:09:25;;;;;;;2.33;0.82;;;17.70;67.30;;;;;;10414464;28;20576;-58
2022/02/06 23:14:26;;;;;;;1.95;0.70;;;17.70;67.10;;;;;;10430347;28;20014;-58
2022/02/06 23:19:27;;;;;;;2.60;0.90;;;17.70;67.20;;;;;;10430439;28;20033;-58
2022/02/06 23:24:28;;;;;;;1.88;0.57;;;17.70;67.00;;;;;;10431155;28;20098;-58
2022/02/06 23:29:28;;;;;;;1.40;0.57;;;17.70;67.00;;;;;;10395345;28;20053;-58
2022/02/06 23:34:29;;;;;;;2.38;0.70;;;17.70;67.50;;;;;;10400570;28;20028;-59
2022/02/06 23:39:30;;;;;;;2.63;0.82;;;17.70;66.80;;;;;;10417227;28;20117;-59
2022/02/06 23:44:30;;;;;;;2.53;0.60;;;17.70;66.80;;;;;;10414558;28;20032;-59
2022/02/06 23:49:31;;;;;;;1.77;0.60;;;17.70;66.80;;;;;;10413192;28;20030;-59
2022/02/06 23:54:46;;;;;;;2.83;0.98;;;17.70;66.80;;;;;;10414217;28;20104;-59
2022/02/06 23:59:56;;;;;;;2.15;0.63;;;17.70;66.70;;;;;;10413067;28;20462;-58
